Forum Crazy Orc - Centre de statistiques

Statistiques générales

Total des membres:
1 026
Total des messages:
97 008
Total des sujets:
4 101
Total des catégories:
4
Membres en ligne:
135
Connexions simultanées:
808 - 21 janvier 2020 à 20:55:59
En ligne aujourd'hui:
161
Total des pages vues:
34 355 378
Moyenne des inscriptions par jour:
0,25
Moyenne des messages par jour:
24,23
Moyenne des sujets par jour:
1,09
Total des sections:
40
Dernier membre:
Ozarnk
Moyenne d'utilisateurs connectés par jour:
48,89
Ratio hommes/femmes:
7.1:1
Pages vues en moyenne par jour:
5 911,11

Top lanceurs de sujets

nunch
600
Morithil
330
ManuDevil
290
GroumpH
246
Scratchy
132
MAO
110
LeDupontesque
105
jules
99
snake
92
CCCP
85

Temps de connexion cumulé

Mandy
133j 19h 59m
GroumpH
112j 9h 9m
CCCP
86j 21h 5m
Nukeflow
73j 8h 19m
ManuDevil
67j 14h 30m
Felipe
61j 12h 19m
dao
56j 17h 58m
nunch
49j 1h 9m
Rh
42j 23h 32m
Patate
42j 7h 2m

Historique du forum (basé sur l'heure interne du forum)

Résumé annuel Nouveaux sujets Nouveaux messages Nouveaux membres Connexions simultanées Pages vues
* 2023 20 107 20 161 322 853
Février 2023 1 4 1 161 23 308
Janvier 2023 19 103 19 148 299 545
* 2022 183 1 154 96 261 3 778 792
Décembre 2022 9 37 1 161 306 381
Novembre 2022 16 103 6 261 350 274
Octobre 2022 11 120 17 208 290 108
Septembre 2022 17 115 6 258 357 415
Août 2022 15 108 9 147 318 817
Juillet 2022 13 69 4 208 308 045
2022-07-01 0 3 1 130 10 470
2022-07-02 0 0 0 126 12 286
2022-07-03 0 0 0 105 10 333
2022-07-04 0 0 0 125 10 536
2022-07-05 0 2 1 208 12 011
2022-07-06 1 2 0 120 9 304
2022-07-07 0 1 0 104 9 813
2022-07-08 0 4 0 144 6 805
2022-07-09 1 3 0 107 5 518
2022-07-10 0 2 0 74 7 874
2022-07-11 0 2 0 84 8 866
2022-07-12 0 0 0 80 13 254
2022-07-13 0 0 0 90 14 396
2022-07-14 0 0 0 87 13 406
2022-07-15 0 0 0 85 13 000
2022-07-16 0 0 0 87 10 929
2022-07-17 0 0 0 84 10 797
2022-07-18 0 2 0 87 10 363
2022-07-19 0 6 0 87 11 795
2022-07-20 0 9 0 90 9 464
2022-07-21 0 4 0 81 7 119
2022-07-22 0 6 0 88 10 235
2022-07-23 0 5 0 82 12 225
2022-07-24 0 0 0 89 9 931
2022-07-25 0 0 0 88 8 327
2022-07-26 0 0 0 80 8 196
2022-07-27 10 11 0 79 8 586
2022-07-28 1 2 1 80 5 579
2022-07-29 0 1 1 116 6 590
2022-07-30 0 2 0 109 11 625
2022-07-31 0 2 0 101 8 412
Juin 2022 14 76 4 62 333 112
Mai 2022 16 118 8 91 339 244
Avril 2022 18 133 12 61 254 691
Mars 2022 15 123 8 65 281 935
Février 2022 17 84 9 58 314 588
Janvier 2022 22 68 12 70 324 182
* 2021 129 756 53 338 4 376 522
Décembre 2021 8 37 0 129 661 064
Novembre 2021 13 99 4 153 262 314
2021-11-01 0 1 0 104 6 791
2021-11-02 1 4 0 86 7 303
2021-11-03 3 9 1 90 4 912
2021-11-04 1 2 0 113 8 815
2021-11-05 1 12 1 82 8 224
2021-11-06 0 6 0 79 7 367
2021-11-07 0 6 0 70 7 525
2021-11-08 0 0 0 84 5 740
2021-11-09 0 2 0 81 6 641
2021-11-10 0 2 0 115 6 991
2021-11-11 2 8 0 122 9 859
2021-11-12 0 3 0 125 14 014
2021-11-13 0 1 1 135 14 443
2021-11-14 0 3 0 153 13 594
2021-11-15 0 1 0 139 14 330
2021-11-16 0 2 1 132 10 656
2021-11-17 0 3 0 88 7 851
2021-11-18 0 1 0 88 9 836
2021-11-19 0 3 0 75 12 547
2021-11-20 0 4 0 72 7 556
2021-11-21 0 0 0 61 5 092
2021-11-22 4 7 0 67 7 221
2021-11-23 1 4 0 75 7 572
2021-11-24 0 3 0 71 7 662
2021-11-25 0 0 0 80 5 738
2021-11-26 0 1 0 75 6 288
2021-11-27 0 6 0 77 8 820
2021-11-28 0 2 0 83 6 614
2021-11-29 0 2 0 74 11 072
2021-11-30 0 1 0 122 11 240
Octobre 2021 20 208 15 159 298 103
Septembre 2021 24 171 10 280 285 455
Août 2021 11 33 7 73 231 609
Juillet 2021 6 8 2 81 305 173
Juin 2021 17 31 2 135 311 168
Mai 2021 3 31 4 268 597 777
Avril 2021 10 51 6 287 308 355
2021-04-01 1 5 1 73 10 500
2021-04-02 0 2 0 71 8 047
2021-04-03 0 0 0 59 7 541
2021-04-04 1 3 1 56 9 206
2021-04-05 0 0 0 59 8 809
2021-04-06 0 1 0 59 6 737
2021-04-07 0 4 0 63 6 731
2021-04-08 0 0 0 64 9 161
2021-04-09 0 0 0 65 8 780
2021-04-10 0 0 0 64 8 686
2021-04-11 0 1 0 59 9 738
2021-04-12 0 2 0 63 9 761
2021-04-13 1 3 1 71 11 667
2021-04-14 0 4 0 287 14 963
2021-04-15 0 0 0 74 11 393
2021-04-16 0 2 0 68 9 533
2021-04-17 0 0 0 68 7 869
2021-04-18 0 0 0 73 6 458
2021-04-19 0 1 0 67 6 158
2021-04-20 3 3 1 76 9 885
2021-04-21 1 8 1 91 8 256
2021-04-22 0 5 0 132 10 159
2021-04-23 0 0 0 145 14 980
2021-04-24 1 1 0 132 12 209
2021-04-25 0 2 0 142 12 832
2021-04-26 1 2 0 116 9 593
2021-04-27 0 1 0 118 9 289
2021-04-28 0 0 1 107 12 148
2021-04-29 0 0 0 107 9 489
2021-04-30 1 1 0 104 27 777
Mars 2021 7 24 1 308 444 900
Février 2021 5 29 2 338 223 056
Janvier 2021 5 34 0 322 447 548
* 2020 206 1 716 105 808 4 713 463
Décembre 2020 6 38 2 320 310 487
Novembre 2020 12 97 3 352 464 426
Octobre 2020 21 169 7 346 497 422
Septembre 2020 30 356 15 133 325 183
Août 2020 16 147 7 163 471 897
2020-08-01 0 0 1 125 9 376
2020-08-02 0 0 1 127 10 771
2020-08-03 2 4 0 135 9 364
2020-08-04 0 0 0 163 13 035
2020-08-05 0 5 1 160 20 546
2020-08-06 0 2 0 131 12 711
2020-08-07 0 0 0 119 12 203
2020-08-08 0 0 0 103 12 458
2020-08-09 0 2 0 87 11 220
2020-08-10 0 1 0 81 10 362
2020-08-11 0 1 0 83 14 026
2020-08-12 0 3 0 87 134 172
2020-08-13 0 5 0 103 10 481
2020-08-14 0 3 0 97 13 299
2020-08-15 2 3 0 96 8 890
2020-08-16 3 6 1 82 8 258
2020-08-17 0 11 0 85 9 541
2020-08-18 0 6 0 91 10 678
2020-08-19 0 5 0 84 11 112
2020-08-20 1 15 1 78 11 469
2020-08-21 0 7 0 84 11 326
2020-08-22 0 5 0 83 11 201
2020-08-23 1 3 0 71 10 011
2020-08-24 3 8 0 82 10 392
2020-08-25 0 2 0 95 9 967
2020-08-26 0 5 0 92 10 480
2020-08-27 2 9 0 92 12 374
2020-08-28 1 12 1 95 9 959
2020-08-29 0 9 1 90 9 439
2020-08-30 0 8 0 104 10 776
2020-08-31 1 7 0 137 12 000
Juillet 2020 16 77 2 100 345 760
Juin 2020 17 60 5 127 452 817
Mai 2020 7 22 3 295 321 652
Avril 2020 10 47 1 189 300 030
Mars 2020 24 253 3 199 467 854
Février 2020 18 171 9 323 281 798
Janvier 2020 29 279 48 808 474 137
* 2019 246 3 411 313 446 3 308 531
Décembre 2019 18 159 26 446 351 248
Novembre 2019 16 245 33 325 524 135
Octobre 2019 24 272 59 121 189 762
Septembre 2019 25 386 54 141 376 708
Août 2019 22 257 31 122 225 760
2019-08-01 0 17 1 101 4 722
2019-08-02 1 16 1 99 5 527
2019-08-03 0 9 0 100 9 242
2019-08-04 0 2 0 92 4 700
2019-08-05 0 4 0 122 3 678
2019-08-06 0 8 0 94 4 677
2019-08-07 0 4 0 98 4 369
2019-08-08 0 5 0 100 6 221
2019-08-09 1 8 0 111 6 677
2019-08-10 0 1 0 99 8 730
2019-08-11 0 10 0 101 6 982
2019-08-12 0 10 1 100 22 525
2019-08-13 1 11 0 99 15 601
2019-08-14 0 10 0 100 10 146
2019-08-15 1 6 2 114 7 279
2019-08-16 1 14 0 98 8 935
2019-08-17 0 6 0 100 8 964
2019-08-18 1 2 1 103 11 513
2019-08-19 3 5 3 92 9 363
2019-08-20 0 0 1 94 4 320
2019-08-21 2 7 4 97 4 019
2019-08-22 0 5 2 95 4 156
2019-08-23 0 3 1 78 7 584
2019-08-24 0 4 1 32 2 644
2019-08-25 1 5 2 91 3 521
2019-08-26 0 9 3 100 5 440
2019-08-27 6 29 2 101 5 306
2019-08-28 1 12 2 92 4 748
2019-08-29 0 7 1 92 4 376
2019-08-30 1 16 0 93 9 018
2019-08-31 2 12 3 98 10 777
Juillet 2019 24 281 62 149 190 301
Juin 2019 11 171 3 112 246 519
Mai 2019 23 311 10 167 218 891
Avril 2019 21 294 9 174 311 459
Mars 2019 22 372 16 142 344 146
Février 2019 18 288 4 110 142 132
Janvier 2019 22 375 6 113 187 470
* 2018 338 6 176 81 641 2 624 946
Décembre 2018 43 306 8 253 421 582
Novembre 2018 26 467 9 641 383 363
Octobre 2018 34 527 6 321 248 725
Septembre 2018 34 641 10 127 216 306
Août 2018 32 583 16 101 188 648
Juillet 2018 21 386 3 104 182 475
Juin 2018 31 442 3 110 213 303
Mai 2018 21 422 4 107 174 393
Avril 2018 25 564 5 104 159 849
Mars 2018 20 634 4 96 152 933
Février 2018 25 631 7 93 121 912
Janvier 2018 26 573 6 94 161 457
* 2017 346 6 100 56 180 1 675 168
Décembre 2017 37 499 6 91 136 063
2017-12-01 1 27 0 85 5 032
2017-12-02 1 21 0 81 4 462
2017-12-03 0 17 0 91 4 582
2017-12-04 0 10 0 90 4 385
2017-12-05 0 13 0 80 3 786
2017-12-06 0 15 0 79 3 217
2017-12-07 1 13 1 73 4 202
2017-12-08 0 5 0 71 4 487
2017-12-09 1 1 1 75 4 265
2017-12-10 2 15 1 80 5 206
2017-12-11 2 21 0 73 4 933
2017-12-12 3 44 0 71 5 142
2017-12-13 2 19 0 75 4 201
2017-12-14 0 16 0 78 4 162
2017-12-15 3 15 1 73 4 050
2017-12-16 1 23 0 73 4 372
2017-12-17 6 30 0 78 4 718
2017-12-18 2 22 0 73 4 383
2017-12-19 1 12 0 75 3 880
2017-12-20 1 18 0 75 4 061
2017-12-21 0 6 0 80 4 040
2017-12-22 0 8 0 78 5 188
2017-12-23 1 10 0 72 4 724
2017-12-24 1 4 0 75 4 594
2017-12-25 1 9 0 75 4 387
2017-12-26 0 9 2 84 4 348
2017-12-27 1 26 0 75 4 354
2017-12-28 4 31 0 89 4 670
2017-12-29 0 19 0 82 4 453
2017-12-30 1 13 0 79 3 800
2017-12-31 1 7 0 75 3 979
Novembre 2017 37 675 6 93 169 670
Octobre 2017 15 426 2 93 151 449
Septembre 2017 28 548 5 94 135 543
Août 2017 29 384 6 99 148 097
2017-08-01 0 9 0 68 3 543
2017-08-02 0 12 1 66 2 932
2017-08-03 0 7 0 64 3 100
2017-08-04 1 8 0 83 3 375
2017-08-05 1 8 0 81 4 004
2017-08-06 2 6 1 80 3 731
2017-08-07 6 14 1 85 3 850
2017-08-08 2 3 0 76 4 998
2017-08-09 0 13 1 72 4 403
2017-08-10 3 6 0 75 3 696
2017-08-11 0 6 0 74 2 479
2017-08-12 0 7 0 81 4 043
2017-08-13 0 9 0 73 4 128
2017-08-14 0 14 0 73 3 594
2017-08-15 2 7 0 71 3 835
2017-08-16 1 11 0 70 3 779
2017-08-17 0 13 0 82 3 941
2017-08-18 0 7 0 82 3 689
2017-08-19 0 8 0 19 1 560
2017-08-20 0 11 0 85 2 353
2017-08-21 0 15 0 99 4 536
2017-08-22 2 37 0 91 4 987
2017-08-23 0 13 0 81 4 153
2017-08-24 5 24 0 87 5 297
2017-08-25 1 31 0 79 4 356
2017-08-26 0 12 0 85 4 846
2017-08-27 1 23 0 83 6 285
2017-08-28 0 21 0 98 6 070
2017-08-29 0 5 0 85 5 964
2017-08-30 1 14 1 79 25 924
2017-08-31 1 10 1 82 4 646
Juillet 2017 25 490 5 87 176 472
Juin 2017 33 603 4 89 156 248
Mai 2017 26 470 2 99 181 189
Avril 2017 31 490 5 180 139 896
Mars 2017 27 432 3 119 90 981
Février 2017 31 587 7 87 74 924
Janvier 2017 27 496 5 80 114 636
* 2016 389 7 721 79 245 2 075 605
Décembre 2016 34 533 2 170 118 206
Novembre 2016 34 586 6 245 122 991
Octobre 2016 43 726 7 191 160 217
Septembre 2016 26 657 9 85 157 449
Août 2016 31 721 9 114 169 873
2016-08-01 0 34 0 56 15 771
2016-08-02 1 24 0 49 4 965
2016-08-03 0 15 0 54 4 374
2016-08-04 0 39 0 46 4 547
2016-08-05 1 46 1 42 4 740
2016-08-06 0 18 0 49 4 109
2016-08-07 9 43 2 54 3 599
2016-08-08 1 25 0 48 3 592
2016-08-09 0 15 0 49 3 725
2016-08-10 0 19 0 45 4 264
2016-08-11 1 9 0 44 3 140
2016-08-12 1 24 0 45 4 209
2016-08-13 0 13 2 48 4 850
2016-08-14 2 31 2 46 4 216
2016-08-15 0 27 0 25 3 114
2016-08-16 1 23 0 30 2 754
2016-08-17 1 30 0 30 3 105
2016-08-18 0 16 0 60 3 872
2016-08-19 0 27 0 58 4 655
2016-08-20 1 23 0 72 4 528
2016-08-21 0 6 0 64 4 231
2016-08-22 0 19 0 114 6 004
2016-08-23 1 25 0 103 5 871
2016-08-24 1 24 0 59 3 064
2016-08-25 0 7 0 90 16 785
2016-08-26 1 16 0 69 17 998
2016-08-27 0 12 0 72 4 035
2016-08-28 7 42 1 73 3 576
2016-08-29 0 27 0 77 5 294
2016-08-30 1 27 1 71 5 843
2016-08-31 1 15 0 69 5 043
Juillet 2016 19 513 3 58 166 690
Juin 2016 30 565 5 53 211 715
Mai 2016 40 1 116 8 94 166 514
Avril 2016 27 529 7 65 155 208
Mars 2016 35 513 11 88 224 056
Février 2016 35 640 4 96 192 454
Janvier 2016 35 622 8 95 230 232
2016-01-01 1 38 0 74 6 938
2016-01-02 5 14 0 62 4 266
2016-01-03 1 10 0 73 4 160
2016-01-04 1 17 1 74 5 076
2016-01-05 2 22 0 81 6 676
2016-01-06 0 16 1 73 2 487
2016-01-07 2 18 1 73 16 041
2016-01-08 1 18 1 68 8 960
2016-01-09 0 15 0 83 5 138
2016-01-10 2 38 0 80 5 949
2016-01-11 2 44 0 77 6 900
2016-01-12 0 18 0 77 7 023
2016-01-13 1 29 1 83 8 300
2016-01-14 1 17 0 94 10 452
2016-01-15 1 20 0 90 7 501
2016-01-16 0 35 0 95 11 508
2016-01-17 0 32 0 85 12 436
2016-01-18 1 14 0 81 15 167
2016-01-19 1 23 0 83 13 475
2016-01-20 1 20 0 79 9 097
2016-01-21 0 9 0 75 7 399
2016-01-22 1 8 0 71 7 610
2016-01-23 0 18 0 73 5 798
2016-01-24 1 20 0 66 5 545
2016-01-25 4 14 0 74 4 580
2016-01-26 1 14 0 75 6 897
2016-01-27 1 11 1 80 5 561
2016-01-28 1 22 0 83 5 191
2016-01-29 0 14 0 73 4 905
2016-01-30 1 14 1 81 4 215
2016-01-31 2 20 1 64 4 981
* 2015 373 6 684 79 100 1 549 803
Décembre 2015 28 499 7 68 140 303
Novembre 2015 40 724 5 35 146 607
Octobre 2015 32 760 10 84 227 528
Septembre 2015 40 948 13 100 169 012
Août 2015 36 566 12 61 119 954
Juillet 2015 29 462 7 31 89 666
2015-07-01 0 4 0 13 1 257
2015-07-02 1 2 0 14 1 570
2015-07-03 3 24 0 19 2 798
2015-07-04 0 8 0 18 2 278
2015-07-05 0 18 2 17 3 771
2015-07-06 3 52 0 23 5 662
2015-07-07 0 9 0 19 4 584
2015-07-08 0 10 0 18 3 475
2015-07-09 2 21 0 16 2 090
2015-07-10 0 7 0 18 2 685
2015-07-11 0 9 0 16 2 150
2015-07-12 0 17 0 21 2 665
2015-07-13 0 12 0 21 3 531
2015-07-14 1 11 0 19 5 009
2015-07-15 2 17 0 19 5 094
2015-07-16 1 20 0 18 4 130
2015-07-17 0 11 0 18 3 208
2015-07-18 2 15 1 21 3 167
2015-07-19 0 22 0 16 2 520
2015-07-20 0 13 0 16 2 374
2015-07-21 0 8 1 18 2 140
2015-07-22 1 19 0 14 2 340
2015-07-23 5 18 1 19 2 644
2015-07-24 2 29 1 19 2 376
2015-07-25 1 26 0 20 2 151
2015-07-26 1 15 0 31 2 342
2015-07-27 2 8 1 17 1 660
2015-07-28 0 16 0 14 2 104
2015-07-29 0 8 0 13 2 648
2015-07-30 2 6 0 17 2 245
2015-07-31 0 7 0 15 2 998
Juin 2015 24 453 5 30 112 317
Mai 2015 30 390 2 24 73 874
Avril 2015 29 408 4 25 95 371
Mars 2015 38 550 7 37 130 116
2015-03-01 6 23 0 17 2 804
2015-03-02 1 11 0 19 6 535
2015-03-03 1 24 0 20 7 827
2015-03-04 1 8 0 21 6 847
2015-03-05 2 12 0 18 4 653
2015-03-06 2 23 1 37 2 453
2015-03-07 0 10 0 14 2 686
2015-03-08 0 19 0 14 2 573
2015-03-09 1 20 0 16 2 393
2015-03-10 1 14 1 14 2 610
2015-03-11 0 8 0 20 2 571
2015-03-12 1 14 0 18 2 502
2015-03-13 0 16 0 20 3 764
2015-03-14 0 8 0 20 4 537
2015-03-15 3 22 1 19 5 142
2015-03-16 0 8 0 14 2 163
2015-03-17 0 16 0 15 1 726
2015-03-18 0 2 0 14 1 638
2015-03-19 2 12 0 21 4 946
2015-03-20 2 14 1 21 7 189
2015-03-21 2 27 1 20 9 145
2015-03-22 1 11 0 27 8 492
2015-03-23 6 18 1 21 6 865
2015-03-24 1 23 1 17 4 732
2015-03-25 0 36 0 24 3 346
2015-03-26 1 33 0 19 3 386
2015-03-27 0 12 0 18 3 367
2015-03-28 0 8 0 20 4 407
2015-03-29 4 47 0 17 4 241
2015-03-30 0 38 0 15 2 577
2015-03-31 0 13 0 24 1 999
Février 2015 15 434 2 24 123 854
Janvier 2015 32 490 5 44 121 201
* 2014 428 7 364 58 58 2 478 164
Décembre 2014 24 360 4 33 191 610
Novembre 2014 37 572 7 46 525 858
Octobre 2014 45 928 8 58 364 915
Septembre 2014 24 549 8 32 162 413
Août 2014 17 251 4 27 191 624
Juillet 2014 25 369 3 30 236 312
Juin 2014 29 602 3 32 220 918
Mai 2014 34 842 6 29 157 174
Avril 2014 45 662 1 25 104 486
Mars 2014 32 595 4 26 120 439
2014-03-01 0 12 1 20 3 786
2014-03-02 1 4 1 24 3 590
2014-03-03 0 7 0 20 2 446
2014-03-04 0 23 0 20 3 629
2014-03-05 2 22 0 21 3 661
2014-03-06 1 18 0 20 2 585
2014-03-07 0 15 0 23 2 700
2014-03-08 1 13 0 21 2 461
2014-03-09 0 4 0 19 2 983
2014-03-10 0 19 0 16 2 791
2014-03-11 1 19 0 19 3 130
2014-03-12 0 16 0 21 3 522
2014-03-13 1 31 0 22 5 550
2014-03-14 0 16 0 26 4 818
2014-03-15 1 11 0 21 5 306
2014-03-16 4 19 0 24 6 026
2014-03-17 3 25 0 20 3 862
2014-03-18 2 35 0 22 5 721
2014-03-19 0 19 0 21 4 981
2014-03-20 1 25 1 18 3 637
2014-03-21 1 27 0 24 5 005
2014-03-22 1 13 0 20 4 151
2014-03-23 4 27 0 20 5 982
2014-03-24 2 46 0 21 4 374
2014-03-25 0 26 0 18 2 690
2014-03-26 2 23 1 19 3 653
2014-03-27 0 19 0 20 3 562
2014-03-28 3 18 0 20 3 984
2014-03-29 0 17 0 17 3 432
2014-03-30 0 7 0 17 2 121
2014-03-31 1 19 0 18 4 300
Février 2014 24 660 5 28 102 996
Janvier 2014 92 974 5 33 99 419
* 2013 408 8 887 76 89 1 597 727
Décembre 2013 36 785 2 79 132 305
Novembre 2013 36 751 8 29 141 119
Octobre 2013 37 683 10 26 116 570
Septembre 2013 33 723 15 29 160 779
Août 2013 20 356 4 30 113 960
2013-08-01 0 1 0 17 6 165
2013-08-02 2 10 1 30 3 363
2013-08-03 0 4 0 18 3 801
2013-08-04 1 6 0 15 4 126
2013-08-05 2 13 0 22 3 858
2013-08-06 0 8 0 17 5 385
2013-08-07 0 5 0 17 3 665
2013-08-08 0 10 0 18 3 057
2013-08-09 0 6 0 18 4 374
2013-08-10 1 2 0 16 4 563
2013-08-11 0 9 0 17 4 114
2013-08-12 0 1 0 20 4 489
2013-08-13 1 17 0 19 4 829
2013-08-14 0 7 0 15 2 333
2013-08-15 0 2 0 14 2 977
2013-08-16 0 1 0 15 4 833
2013-08-17 0 2 0 13 3 056
2013-08-18 0 7 0 13 2 784
2013-08-19 1 3 0 12 3 124
2013-08-20 1 8 0 13 2 097
2013-08-21 0 10 0 14 2 180
2013-08-22 0 9 0 15 2 515
2013-08-23 0 13 1 23 3 032
2013-08-24 2 21 0 14 2 563
2013-08-25 1 8 0 14 2 604
2013-08-26 1 13 0 14 1 978
2013-08-27 1 22 0 18 2 519
2013-08-28 0 30 0 14 3 594
2013-08-29 0 26 1 17 2 491
2013-08-30 2 41 1 20 8 436
2013-08-31 4 41 0 22 5 055
Juillet 2013 21 331 2 24 120 164
Juin 2013 40 731 5 34 119 512
Mai 2013 34 881 3 47 157 484
2013-05-01 0 15 0 18 4 248
2013-05-02 0 9 0 19 6 085
2013-05-03 0 16 0 17 4 788
2013-05-04 2 16 0 20 4 230
2013-05-05 2 34 0 24 4 982
2013-05-06 2 53 0 21 4 256
2013-05-07 0 38 0 21 4 459
2013-05-08 3 29 0 21 4 111
2013-05-09 0 36 0 31 5 286
2013-05-10 0 28 0 47 6 457
2013-05-11 2 28 0 18 5 554
2013-05-12 1 35 0 17 4 775
2013-05-13 2 40 0 19 8 701
2013-05-14 2 34 0 19 5 271
2013-05-15 2 34 0 18 4 752
2013-05-16 0 40 0 20 6 246
2013-05-17 1 24 1 20 5 171
2013-05-18 2 12 0 18 5 484
2013-05-19 1 36 0 22 3 824
2013-05-20 0 9 0 20 5 481
2013-05-21 0 4 0 17 6 094
2013-05-22 1 21 0 17 4 610
2013-05-23 1 14 0 18 5 776
2013-05-24 0 22 0 18 5 736
2013-05-25 0 8 0 17 3 869
2013-05-26 1 32 0 20 4 951
2013-05-27 3 26 0 18 5 140
2013-05-28 0 33 0 21 3 623
2013-05-29 1 34 0 18 3 927
2013-05-30 4 51 2 18 4 466
2013-05-31 1 70 0 20 5 131
Avril 2013 38 799 8 33 124 279
Mars 2013 40 1 111 9 62 147 762
2013-03-01 0 12 0 51 6 549
2013-03-02 1 13 0 37 4 543
2013-03-03 2 43 0 37 3 584
2013-03-04 0 47 0 48 5 492
2013-03-05 1 28 2 43 10 235
2013-03-06 0 23 1 23 5 242
2013-03-07 1 25 0 17 2 873
2013-03-08 2 34 0 22 3 808
2013-03-09 2 35 1 15 3 643
2013-03-10 4 41 0 43 3 470
2013-03-11 1 26 0 30 4 367
2013-03-12 0 34 1 21 4 299
2013-03-13 3 59 0 24 4 126
2013-03-14 3 38 0 18 4 289
2013-03-15 1 63 1 18 4 539
2013-03-16 0 26 0 16 3 540
2013-03-17 1 34 0 18 3 678
2013-03-18 1 70 0 62 5 572
2013-03-19 4 21 1 27 3 636
2013-03-20 1 43 1 33 6 483
2013-03-21 2 43 0 23 5 533
2013-03-22 0 29 0 24 4 112
2013-03-23 3 17 0 20 3 638
2013-03-24 3 68 0 23 4 766
2013-03-25 0 41 1 22 8 947
2013-03-26 3 50 0 20 6 590
2013-03-27 0 39 0 27 3 966
2013-03-28 0 37 0 24 5 372
2013-03-29 0 42 0 19 5 271
2013-03-30 1 17 0 14 2 181
2013-03-31 0 13 0 18 3 418
Février 2013 32 838 5 79 125 299
Janvier 2013 41 898 5 89 138 494
* 2012 446 10 690 67 157 1 274 957
Décembre 2012 57 1 411 4 45 150 137
2012-12-01 3 30 0 17 8 865
2012-12-02 0 39 0 29 12 336
2012-12-03 1 44 0 36 10 973
2012-12-04 1 36 0 25 8 090
2012-12-05 4 63 1 18 4 442
2012-12-06 3 55 0 22 3 938
2012-12-07 1 57 0 20 4 955
2012-12-08 1 21 0 36 3 479
2012-12-09 2 28 0 18 3 093
2012-12-10 2 73 0 19 5 209
2012-12-11 0 64 0 17 4 348
2012-12-12 2 32 0 16 3 366
2012-12-13 1 48 0 20 3 104
2012-12-14 1 41 0 20 3 934
2012-12-15 0 9 0 16 2 675
2012-12-16 6 94 1 23 4 989
2012-12-17 2 90 1 24 5 481
2012-12-18 4 48 1 45 5 932
2012-12-19 3 94 0 19 4 628
2012-12-20 2 61 0 38 4 148
2012-12-21 2 83 0 33 4 280
2012-12-22 1 17 0 18 3 038
2012-12-23 1 25 0 21 2 732
2012-12-24 0 19 0 17 5 198
2012-12-25 1 20 0 16 2 480
2012-12-26 1 11 0 20 2 873
2012-12-27 4 56 0 20 4 317
2012-12-28 3 33 0 20 2 804
2012-12-29 3 36 0 21 4 004
2012-12-30 0 54 0 24 4 260
2012-12-31 2 30 0 23 6 166
Novembre 2012 46 1 137 8 25 112 399
Octobre 2012 45 1 068 7 25 80 970
Septembre 2012 37 876 11 38 107 023
Août 2012 30 595 5 41 95 032
Juillet 2012 24 563 2 157 78 638
Juin 2012 39 984 10 33 88 620
Mai 2012 22 703 5 26 77 701
Avril 2012 33 714 4 33 95 151
2012-04-01 2 22 0 25 3 938
2012-04-02 1 49 0 26 3 936
2012-04-03 1 13 0 22 3 955
2012-04-04 1 23 1 21 3 616
2012-04-05 1 23 0 21 4 026
2012-04-06 2 13 0 22 3 297
2012-04-07 1 14 1 20 3 117
2012-04-08 0 10 0 17 3 082
2012-04-09 3 13 0 20 2 799
2012-04-10 0 23 0 24 3 521
2012-04-11 0 15 0 21 3 174
2012-04-12 0 19 0 19 3 154
2012-04-13 0 17 0 17 2 926
2012-04-14 0 22 1 22 2 797
2012-04-15 1 19 0 20 2 363
2012-04-16 5 42 0 23 4 103
2012-04-17 0 37 0 21 3 144
2012-04-18 1 19 0 25 3 996
2012-04-19 1 16 0 20 2 869
2012-04-20 1 24 0 19 3 018
2012-04-21 1 34 0 23 3 678
2012-04-22 0 30 0 23 2 720
2012-04-23 1 13 0 18 3 576
2012-04-24 3 22 0 19 2 798
2012-04-25 2 24 0 20 3 296
2012-04-26 0 26 0 22 2 713
2012-04-27 0 24 0 14 2 406
2012-04-28 1 12 0 33 2 172
2012-04-29 3 64 1 14 2 564
2012-04-30 1 32 0 13 2 397
Mars 2012 35 977 5 48 160 160
Février 2012 34 704 5 33 117 877
Janvier 2012 44 958 1 30 111 249
* 2011 822 21 877 118 48 1 861 895
Décembre 2011 68 1 315 7 36 141 929
2011-12-01 0 46 0 28 3 436
2011-12-02 2 46 0 29 5 093
2011-12-03 3 35 0 24 3 173
2011-12-04 5 39 0 26 6 734
2011-12-05 5 109 0 36 4 968
2011-12-06 3 65 0 25 7 602
2011-12-07 4 93 1 28 6 025
2011-12-08 2 76 0 22 4 333
2011-12-09 1 94 0 29 6 392
2011-12-10 5 39 1 25 5 955
2011-12-11 3 49 1 27 5 545
2011-12-12 4 48 0 23 3 344
2011-12-13 3 64 0 28 6 227
2011-12-14 1 28 0 21 2 931
2011-12-15 4 66 1 31 4 951
2011-12-16 3 30 0 28 3 649
2011-12-17 1 29 0 19 4 090
2011-12-18 3 76 1 25 6 571
2011-12-19 5 67 2 23 5 351
2011-12-20 5 57 0 27 5 091
2011-12-21 0 12 0 22 5 526
2011-12-22 0 4 0 25 2 840
2011-12-23 1 8 0 18 3 720
2011-12-24 1 19 0 23 5 013
2011-12-25 1 26 0 17 2 000
2011-12-26 0 22 0 14 3 519
2011-12-27 2 20 0 25 3 302
2011-12-28 0 13 0 24 4 326
2011-12-29 1 16 0 20 3 816
2011-12-30 0 11 0 19 4 054
2011-12-31 0 8 0 28 2 352
Novembre 2011 94 1 539 4 36 150 015
Octobre 2011 81 1 597 13 41 169 207
Septembre 2011 96 1 991 19 24 158 540
Août 2011 68 1 372 16 48 135 201
Juillet 2011 57 1 156 10 30 112 626
Juin 2011 40 1 214 6 31 149 115
Mai 2011 64 1 997 8 39 181 997
Avril 2011 46 1 637 9 38 176 986
Mars 2011 54 2 388 6 31 211 307
Février 2011 59 2 656 5 46 128 248
Janvier 2011 95 3 015 15 44 146 724
* 2010 615 23 079 70 91 1 409 620
Décembre 2010 54 2 635 5 43 199 984
Novembre 2010 59 2 475 6 49 127 779
Octobre 2010 56 2 811 15 58 134 942
Septembre 2010 53 1 528 8 29 95 249
Août 2010 32 1 287 6 33 89 617
Juillet 2010 34 1 637 5 32 97 290
Juin 2010 46 2 137 3 28 109 648
Mai 2010 50 1 497 6 28 99 050
Avril 2010 45 1 888 3 26 102 219
Mars 2010 53 1 534 2 46 118 201
Février 2010 65 1 574 4 91 117 274
Janvier 2010 68 2 076 7 43 118 367
* 2009 752 28 223 96 159 970 278
Décembre 2009 39 2 001 5 54 122 418
2009-12-01 2 99 0 21 3 827
2009-12-02 0 91 0 20 3 658
2009-12-03 3 128 0 22 4 078
2009-12-04 2 111 0 23 3 795
2009-12-05 1 47 1 17 2 228
2009-12-06 2 48 0 17 3 135
2009-12-07 1 116 1 27 3 862
2009-12-08 1 58 0 19 4 184
2009-12-09 1 94 0 33 3 923
2009-12-10 0 72 0 38 3 566
2009-12-11 1 46 0 25 2 665
2009-12-12 1 38 0 29 2 266
2009-12-13 0 42 0 28 1 478
2009-12-14 2 86 0 26 2 993
2009-12-15 2 128 0 32 3 520
2009-12-16 3 89 0 25 3 587
2009-12-17 2 106 0 31 3 888
2009-12-18 0 129 0 54 6 524
2009-12-19 0 43 0 14 2 643
2009-12-20 1 41 0 28 7 360
2009-12-21 2 76 0 28 8 634
2009-12-22 5 114 1 31 4 041
2009-12-23 0 33 0 39 3 096
2009-12-24 1 34 0 13 2 752
2009-12-25 0 7 0 32 3 780
2009-12-26 2 26 0 21 2 640
2009-12-27 0 33 1 10 2 292
2009-12-28 2 14 1 27 10 310
2009-12-29 0 18 0 15 5 672
2009-12-30 1 16 0 14 2 982
2009-12-31 1 18 0 11 3 039
Novembre 2009 59 3 138 6 38 117 432
Octobre 2009 67 3 218 11 18 122 232
Septembre 2009 73 2 730 14 159 92 082
2009-09-01 4 68 1 15 2 626
2009-09-02 0 56 0 12 2 372
2009-09-03 2 195 2 15 3 946
2009-09-04 2 190 0 12 4 086
2009-09-05 1 48 1 10 2 054
2009-09-06 4 66 0 9 2 505
2009-09-07 2 88 0 12 2 827
2009-09-08 1 58 0 14 2 613
2009-09-09 3 77 2 159 4 703
2009-09-10 0 114 0 14 3 743
2009-09-11 1 74 0 12 3 640
2009-09-12 2 56 0 10 2 609
2009-09-13 3 93 0 10 3 245
2009-09-14 1 193 1 14 5 003
2009-09-15 4 138 1 12 3 518
2009-09-16 1 122 0 13 3 210
2009-09-17 4 86 2 11 2 944
2009-09-18 2 98 0 11 2 944
2009-09-19 5 104 2 11 2 638
2009-09-20 5 97 0 15 2 994
2009-09-21 3 77 0 12 2 877
2009-09-22 3 56 0 0 2 425
2009-09-23 2 72 0 13 2 559
2009-09-24 1 96 0 12 2 902
2009-09-25 1 54 0 11 2 059
2009-09-26 1 35 0 9 2 795
2009-09-27 2 49 0 13 2 487
2009-09-28 5 85 0 10 2 564
2009-09-29 6 92 0 27 4 187
2009-09-30 2 93 2 12 3 007
Août 2009 47 1 405 8 15 61 919
Juillet 2009 68 1 737 11 21 67 267
Juin 2009 63 2 759 4 37 72 789
2009-06-01 2 158 0 10 2 944
2009-06-02 2 130 0 11 2 903
2009-06-03 1 94 0 10 2 141
2009-06-04 1 73 0 10 2 152
2009-06-05 0 73 0 9 1 915
2009-06-06 4 73 0 9 1 406
2009-06-07 7 84 0 12 2 068
2009-06-08 0 91 0 10 2 235
2009-06-09 2 105 0 14 2 686
2009-06-10 1 63 0 10 1 917
2009-06-11 2 98 1 10 2 352
2009-06-12 1 110 0 13 2 659
2009-06-13 1 24 0 12 1 572
2009-06-14 1 96 0 11 2 188
2009-06-15 5 109 0 15 2 673
2009-06-16 0 91 0 14 2 713
2009-06-17 1 59 0 29 2 049
2009-06-18 2 72 0 0 2 339
2009-06-19 2 95 0 13 2 336
2009-06-20 5 74 0 13 1 883
2009-06-21 2 74 0 11 2 259
2009-06-22 4 77 1 37 3 040
2009-06-23 2 92 0 11 2 504
2009-06-24 1 56 0 13 1 784
2009-06-25 3 93 1 12 2 373
2009-06-26 2 121 0 10 3 083
2009-06-27 1 74 0 12 1 964
2009-06-28 3 98 0 10 2 698
2009-06-29 2 160 0 13 3 452
2009-06-30 3 142 1 13 4 501
Mai 2009 46 2 166 6 16 66 386
2009-05-01 1 129 0 10 2 835
2009-05-02 1 42 1 14 1 469
2009-05-03 0 68 0 13 1 801
2009-05-04 3 101 1 16 2 844
2009-05-05 2 74 1 13 2 433
2009-05-06 4 156 0 15 3 705
2009-05-07 1 47 0 12 1 946
2009-05-08 1 54 1 9 1 538
2009-05-09 2 46 0 10 1 306
2009-05-10 2 58 0 12 1 788
2009-05-11 0 77 0 13 2 263
2009-05-12 1 49 1 11 2 134
2009-05-13 0 31 0 11 1 993
2009-05-14 0 65 0 12 2 003
2009-05-15 0 75 0 11 2 324
2009-05-16 2 36 0 8 1 545
2009-05-17 1 52 1 13 2 284
2009-05-18 0 40 0 11 2 729
2009-05-19 1 60 0 11 2 402
2009-05-20 0 90 0 10 2 220
2009-05-21 5 54 0 10 1 843
2009-05-22 0 36 0 10 1 520
2009-05-23 0 38 0 8 1 804
2009-05-24 5 74 0 10 2 169
2009-05-25 6 80 0 13 2 515
2009-05-26 1 105 0 13 2 637
2009-05-27 4 128 0 14 3 088
2009-05-28 0 85 0 9 1 806
2009-05-29 0 82 0 11 2 137
2009-05-30 0 48 0 8 1 394
2009-05-31 3 86 0 13 1 911
Avril 2009 101 2 850 6 16 73 303
Mars 2009 80 3 538 7 17 83 610
Février 2009 57 1 586 6 16 50 521
Janvier 2009 52 1 095 12 10 40 319
2009-01-01 2 21 0 5 768
2009-01-02 5 32 2 7 1 486
2009-01-03 1 17 0 6 910
2009-01-04 0 22 0 9 1 555
2009-01-05 0 28 0 7 972
2009-01-06 1 17 1 7 734
2009-01-07 4 49 0 7 1 072
2009-01-08 1 33 0 8 1 218
2009-01-09 1 36 0 7 1 148
2009-01-10 1 19 0 9 1 249
2009-01-11 2 35 0 8 1 138
2009-01-12 1 21 2 8 1 085
2009-01-13 1 22 0 9 926
2009-01-14 1 38 1 6 1 577
2009-01-15 2 24 0 6 1 142
2009-01-16 1 22 0 9 1 101
2009-01-17 1 19 0 6 937
2009-01-18 1 19 0 8 1 091
2009-01-19 0 8 1 7 864
2009-01-20 2 22 1 10 1 014
2009-01-21 3 89 0 10 2 235
2009-01-22 0 50 0 8 1 433
2009-01-23 0 34 0 8 1 281
2009-01-24 2 18 0 7 902
2009-01-25 5 71 2 9 2 028
2009-01-26 1 85 0 10 2 278
2009-01-27 4 48 1 8 1 679
2009-01-28 3 72 0 8 1 963
2009-01-29 3 63 0 8 1 669
2009-01-30 1 38 0 9 1 324
2009-01-31 2 23 1 9 1 540
* 2008 334 4 655 56 26 234 055
Décembre 2008 36 663 7 12 28 104
Novembre 2008 51 1 090 9 10 35 948
Octobre 2008 50 609 5 10 26 582
Septembre 2008 40 619 5 10 24 365
Août 2008 28 252 6 9 21 916
Juillet 2008 20 256 5 7 16 733
Juin 2008 17 363 6 26 18 903
Mai 2008 17 180 2 10 13 320
Avril 2008 16 146 3 8 16 063
Mars 2008 18 158 1 9 12 835
Février 2008 19 155 2 9 9 679
Janvier 2008 22 164 5 7 9 607
* 2007 276 2 246 55 9 102 999
Décembre 2007 21 167 5 8 17 081
Novembre 2007 20 168 3 6 8 467
Octobre 2007 21 147 4 5 8 193
2007-10-01 3 12 0 3 329
2007-10-02 0 6 0 4 319
2007-10-03 0 3 0 4 296
2007-10-04 2 10 0 3 310
2007-10-05 0 4 0 4 289
2007-10-06 0 0 0 3 208
2007-10-07 1 2 0 5 203
2007-10-08 1 9 1 4 335
2007-10-09 1 3 0 0 267
2007-10-10 1 7 1 3 300
2007-10-11 0 3 0 4 241
2007-10-12 0 2 0 5 251
2007-10-13 1 3 0 3 247
2007-10-14 0 0 0 3 152
2007-10-15 1 3 0 4 225
2007-10-16 0 2 0 2 145
2007-10-17 3 14 0 5 384
2007-10-18 1 5 0 0 378
2007-10-19 1 3 0 0 261
2007-10-20 0 2 0 3 226
2007-10-21 0 7 0 5 265
2007-10-22 0 0 0 3 197
2007-10-23 0 0 0 0 211
2007-10-24 1 2 0 3 164
2007-10-25 0 0 0 4 162
2007-10-26 1 2 0 4 138
2007-10-27 0 0 0 2 243
2007-10-28 2 3 1 4 239
2007-10-29 0 5 0 3 225
2007-10-30 1 20 1 5 587
2007-10-31 0 15 0 0 396
Septembre 2007 22 183 4 9 9 896
Août 2007 23 226 2 6 9 096
Juillet 2007 18 127 1 4 10 165
Juin 2007 25 309 2 6 13 196
Mai 2007 30 315 8 7 11 830
Avril 2007 44 428 13 9 13 382
2007-04-01 0 21 1 4 390
2007-04-02 4 25 0 6 522
2007-04-03 4 21 1 6 568
2007-04-04 3 41 1 8 1 017
2007-04-05 2 58 0 6 1 236
2007-04-06 1 29 0 6 771
2007-04-07 2 16 1 4 539
2007-04-08 0 6 0 3 243
2007-04-09 2 12 0 6 273
2007-04-10 0 6 0 6 265
2007-04-11 1 7 0 8 508
2007-04-12 1 4 1 8 599
2007-04-13 1 8 1 9 612
2007-04-14 1 2 0 4 309
2007-04-15 0 5 0 5 135
2007-04-16 0 11 0 4 467
2007-04-17 0 4 1 4 250
2007-04-18 1 8 0 7 274
2007-04-19 6 17 0 6 489
2007-04-20 1 23 1 5 463
2007-04-21 1 9 0 6 307
2007-04-22 1 11 2 4 277
2007-04-23 2 10 1 6 377
2007-04-24 1 22 0 5 524
2007-04-25 2 17 1 6 389
2007-04-26 3 12 0 6 502
2007-04-27 1 11 0 4 361
2007-04-28 2 3 0 3 172
2007-04-29 0 8 1 5 310
2007-04-30 1 1 0 5 233
Mars 2007 52 176 13 4 1 693